Terminal Aerodrome Forecast
Issued by NWS Louisville, KY

Home | Current Version | Previous Version | Text Only | Print | Product List | Glossary On
Versions: 1 2 3 4 5 6 7 8 9 10 11 12 13 14 15
248
FTUS43 KLMK 110520
TAFSDF
TAF
KSDF 110520Z 1106/1212 15008KT P6SM SCT070 BKN250
     FM111500 18012G20KT P6SM OVC050
     FM112200 20012G22KT P6SM -SHRA OVC029
     FM120300 22010G20KT 4SM SHRA BR OVC010=

USA.gov is the U.S. government's official web portal to all federal, state and local government web resources and services.